Terminal Aerodrome Forecast
Issued by NWS

Home | Current Version | Previous Version | Text Only | Print | Product List | Glossary On
Versions: 1 2 3 4 5 6 7 8 9 10 11 12 13 14 15 16 17
000
FTUS42 KFFC 272326
TAFFTY
TAF
KFTY 272326Z 2800/2824 32010G20KT P6SM BKN070
     FM280300 32009KT P6SM BKN050
     FM280700 32005KT P6SM FEW070
     FM281400 32008KT P6SM SCT250
     FM282300 31005KT P6SM FEW250=

USA.gov is the U.S. government's official web portal to all federal, state and local government web resources and services.